Time,TemperatureF,DewpointF,PressureIn,WindDirection,WindDirectionDegrees,WindSpeedMPH,WindSpeedGustMPH,Humidity,HourlyPrecipIn,Conditions,Clouds,dailyrainin,SolarRadiationWatts/m^2,SoftwareType,DateUTC
2013-08-12 00:00:00,67.0,57.0,-100.00,NNE,22,1.0,-999.0,72,-99.99,,,-99.99,0.000000,,2013-08-12 04:00:00,
2013-08-12 00:33:00,67.0,57.0,-100.00,NNE,22,1.0,-999.0,72,-99.99,,,-99.99,0.000000,,2013-08-12 04:33:00,
2013-08-12 00:43:00,67.0,57.0,-100.00,NNE,22,1.0,-999.0,72,-99.99,,,-99.99,0.000000,,2013-08-12 04:43:00,
2013-08-12 00:52:00,67.0,57.0,-100.00,NNE,22,1.0,-999.0,72,-99.99,,,-99.99,0.000000,,2013-08-12 04:52:00,
2013-08-12 01:00:00,67.0,57.0,-100.00,North,0,2.0,-999.0,71,-99.99,,,-99.99,0.000000,,2013-08-12 05:00:00,
2013-08-12 01:32:00,67.0,57.0,-100.00,North,0,2.0,-999.0,71,-99.99,,,-99.99,0.000000,,2013-08-12 05:32:00,
2013-08-12 01:43:00,67.0,57.0,-100.00,North,0,2.0,-999.0,71,-99.99,,,-99.99,0.000000,,2013-08-12 05:43:00,
2013-08-12 01:52:00,67.0,57.0,-100.00,North,0,2.0,-999.0,71,-99.99,,,-99.99,0.000000,,2013-08-12 05:52:00,
2013-08-12 02:00:00,66.0,58.0,-100.00,NE,45,0.0,-999.0,75,-99.99,,,-99.99,0.000000,,2013-08-12 06:00:00,
2013-08-12 03:00:00,66.0,59.0,-100.00,NE,45,0.0,-999.0,77,-99.99,,,-99.99,0.000000,,2013-08-12 07:00:00,
2013-08-12 03:33:00,66.0,59.0,-100.00,NE,45,0.0,-999.0,77,-99.99,,,-99.99,0.000000,,2013-08-12 07:33:00,
2013-08-12 03:43:00,66.0,59.0,-100.00,NE,45,0.0,-999.0,77,-99.99,,,-99.99,0.000000,,2013-08-12 07:43:00,
2013-08-12 03:53:00,66.0,59.0,-100.00,NE,45,0.0,-999.0,77,-99.99,,,-99.99,0.000000,,2013-08-12 07:53:00,
2013-08-12 04:00:00,66.0,60.0,-100.00,NNE,22,0.0,-999.0,81,-99.99,,,-99.99,0.000000,,2013-08-12 08:00:00,
2013-08-12 05:00:00,66.0,61.0,-100.00,NNE,22,0.0,-999.0,83,-99.99,,,-99.99,0.000000,,2013-08-12 09:00:00,
2013-08-12 05:32:00,66.0,61.0,-100.00,NNE,22,0.0,-999.0,83,-99.99,,,-99.99,0.000000,,2013-08-12 09:32:00,
2013-08-12 05:43:00,66.0,61.0,-100.00,NNE,22,0.0,-999.0,83,-99.99,,,-99.99,0.000000,,2013-08-12 09:43:00,
2013-08-12 05:53:00,66.0,61.0,-100.00,NNE,22,0.0,-999.0,83,-99.99,,,-99.99,0.000000,,2013-08-12 09:53:00,
2013-08-12 06:00:00,66.0,61.0,-100.00,ENE,67,0.0,-999.0,82,-99.99,,,-99.99,0.000000,,2013-08-12 10:00:00,
2013-08-12 06:32:00,66.0,61.0,-100.00,ENE,67,0.0,-999.0,82,-99.99,,,-99.99,0.000000,,2013-08-12 10:32:00,
2013-08-12 06:43:00,66.0,61.0,-100.00,ENE,67,0.0,-999.0,82,-99.99,,,-99.99,0.000000,,2013-08-12 10:43:00,
2013-08-12 06:52:00,66.0,61.0,-100.00,ENE,67,0.0,-999.0,82,-99.99,,,-99.99,0.000000,,2013-08-12 10:52:00,
2013-08-12 07:00:00,66.0,60.0,-100.00,ENE,67,0.0,-999.0,80,-99.99,,,-99.99,0.000000,,2013-08-12 11:00:00,
2013-08-12 07:32:00,66.0,60.0,-100.00,ENE,67,0.0,-999.0,80,-99.99,,,-99.99,0.000000,,2013-08-12 11:32:00,
2013-08-12 07:43:00,66.0,60.0,-100.00,ENE,67,0.0,-999.0,80,-99.99,,,-99.99,0.000000,,2013-08-12 11:43:00,
2013-08-12 07:53:00,66.0,60.0,-100.00,ENE,67,0.0,-999.0,80,-99.99,,,-99.99,0.000000,,2013-08-12 11:53:00,
2013-08-12 09:00:00,66.0,63.0,-100.00,NW,315,0.0,-999.0,87,-99.99,,,-99.99,33.639999,,2013-08-12 13:00:00,
2013-08-12 09:33:00,66.0,63.0,-100.00,NW,315,0.0,-999.0,87,-99.99,,,-99.99,33.639999,,2013-08-12 13:33:00,
2013-08-12 09:43:00,66.0,63.0,-100.00,NW,315,0.0,-999.0,87,-99.99,,,-99.99,33.639999,,2013-08-12 13:43:00,
2013-08-12 09:53:00,66.0,63.0,-100.00,NW,315,0.0,-999.0,87,-99.99,,,-99.99,33.639999,,2013-08-12 13:53:00,
2013-08-12 10:00:00,68.0,64.0,-100.00,NNW,337,0.0,-999.0,85,0.05,,,-99.99,80.040001,,2013-08-12 14:00:00,
2013-08-12 10:32:00,68.0,64.0,-100.00,NNW,337,0.0,-999.0,85,0.05,,,-99.99,80.040001,,2013-08-12 14:32:00,
2013-08-12 10:42:00,68.0,64.0,-100.00,NNW,337,0.0,-999.0,85,0.05,,,-99.99,80.040001,,2013-08-12 14:42:00,
2013-08-12 10:53:00,68.0,64.0,-100.00,NNW,337,0.0,-999.0,85,0.05,,,-99.99,80.040001,,2013-08-12 14:53:00,
2013-08-12 11:00:00,69.0,65.0,-100.00,North,0,1.0,-999.0,85,-99.99,,,-99.99,129.919998,,2013-08-12 15:00:00,
2013-08-12 11:43:00,69.0,65.0,-100.00,North,0,1.0,-999.0,85,-99.99,,,-99.99,129.919998,,2013-08-12 15:43:00,
2013-08-12 11:52:00,69.0,65.0,-100.00,North,0,1.0,-999.0,85,-99.99,,,-99.99,129.919998,,2013-08-12 15:52:00,
2013-08-12 12:00:00,72.0,65.0,-100.00,ENE,67,2.0,-999.0,78,-99.99,,,-99.99,267.959991,,2013-08-12 16:00:00,
2013-08-12 12:43:00,72.0,65.0,-100.00,ENE,67,2.0,-999.0,78,-99.99,,,-99.99,267.959991,,2013-08-12 16:43:00,
2013-08-12 12:53:00,72.0,65.0,-100.00,ENE,67,2.0,-999.0,78,-99.99,,,-99.99,267.959991,,2013-08-12 16:53:00,
2013-08-12 13:00:00,74.0,63.0,-100.00,ESE,112,3.0,-999.0,68,-99.99,,,-99.99,328.279999,,2013-08-12 17:00:00,
2013-08-12 13:43:00,74.0,63.0,-100.00,ESE,112,3.0,-999.0,68,-99.99,,,-99.99,328.279999,,2013-08-12 17:43:00,
2013-08-12 13:52:00,74.0,63.0,-100.00,ESE,112,3.0,-999.0,68,-99.99,,,-99.99,328.279999,,2013-08-12 17:52:00,
2013-08-12 14:00:00,78.0,62.0,-100.00,SE,135,6.0,-999.0,57,-99.99,,,-99.99,534.760010,,2013-08-12 18:00:00,
2013-08-12 14:43:00,78.0,62.0,-100.00,SE,135,6.0,-999.0,57,-99.99,,,-99.99,534.760010,,2013-08-12 18:43:00,
2013-08-12 14:52:00,78.0,62.0,-100.00,SE,135,6.0,-999.0,57,-99.99,,,-99.99,534.760010,,2013-08-12 18:52:00,
2013-08-12 15:00:00,81.0,59.0,-100.00,SE,135,8.0,-999.0,48,-99.99,,,-99.99,567.239990,,2013-08-12 19:00:00,
2013-08-12 15:43:00,81.0,59.0,-100.00,SE,135,8.0,-999.0,48,-99.99,,,-99.99,567.239990,,2013-08-12 19:43:00,
2013-08-12 15:52:00,81.0,59.0,-100.00,SE,135,8.0,-999.0,48,-99.99,,,-99.99,567.239990,,2013-08-12 19:52:00,
2013-08-12 16:00:00,82.0,59.0,-100.00,SE,135,8.0,-999.0,45,-99.99,,,-99.99,410.640015,,2013-08-12 20:00:00,
2013-08-12 16:42:00,82.0,59.0,-100.00,SE,135,8.0,-999.0,45,-99.99,,,-99.99,410.640015,,2013-08-12 20:42:00,
2013-08-12 16:52:00,82.0,59.0,-100.00,SE,135,8.0,-999.0,45,-99.99,,,-99.99,410.640015,,2013-08-12 20:52:00,
2013-08-12 17:00:00,80.0,60.0,-100.00,South,180,7.0,-999.0,51,-99.99,,,-99.99,293.480011,,2013-08-12 21:00:00,
2013-08-12 17:43:00,80.0,60.0,-100.00,South,180,7.0,-999.0,51,-99.99,,,-99.99,293.480011,,2013-08-12 21:43:00,
2013-08-12 17:52:00,80.0,60.0,-100.00,South,180,7.0,-999.0,51,-99.99,,,-99.99,293.480011,,2013-08-12 21:52:00,
2013-08-12 20:00:00,70.0,64.0,-100.00,SW,225,3.0,-999.0,82,0.35,,,-99.99,32.480000,,2013-08-13 00:00:00,
2013-08-12 20:45:00,70.0,64.0,-100.00,SW,225,3.0,-999.0,82,0.35,,,-99.99,32.480000,,2013-08-13 00:45:00,
2013-08-12 20:54:00,70.0,64.0,-100.00,SW,225,3.0,-999.0,82,0.35,,,-99.99,32.480000,,2013-08-13 00:54:00,
2013-08-12 21:00:00,68.0,65.0,-100.00,SSE,157,0.0,-999.0,89,-99.99,,,-99.99,23.200001,,2013-08-13 01:00:00,
2013-08-12 21:42:00,68.0,65.0,-100.00,SSE,157,0.0,-999.0,89,-99.99,,,-99.99,23.200001,,2013-08-13 01:42:00,
2013-08-12 21:55:00,68.0,65.0,-100.00,SSE,157,0.0,-999.0,89,-99.99,,,-99.99,23.200001,,2013-08-13 01:55:00,
2013-08-12 22:00:00,67.0,64.0,-100.00,South,180,1.0,-999.0,90,-99.99,,,-99.99,0.000000,,2013-08-13 02:00:00,
2013-08-12 22:43:00,67.0,64.0,-100.00,South,180,1.0,-999.0,90,-99.99,,,-99.99,0.000000,,2013-08-13 02:43:00,
2013-08-12 22:52:00,67.0,64.0,-100.00,South,180,1.0,-999.0,90,-99.99,,,-99.99,0.000000,,2013-08-13 02:52:00,
2013-08-12 23:00:00,66.0,63.0,-100.00,WSW,247,0.0,-999.0,91,-99.99,,,-99.99,0.000000,,2013-08-13 03:00:00,
2013-08-12 23:43:00,66.0,63.0,-100.00,WSW,247,0.0,-999.0,91,-99.99,,,-99.99,0.000000,,2013-08-13 03:43:00,
2013-08-12 23:54:00,66.0,63.0,-100.00,WSW,247,0.0,-999.0,91,-99.99,,,-99.99,0.000000,,2013-08-13 03:54:00,